createdAt,value
2023-09-29T00:01:37.075Z,101578.59
2023-09-29T00:04:07.556Z,101573.78
2023-09-29T00:06:34.206Z,101579.22
2023-09-29T00:09:01.730Z,101577.97
2023-09-29T00:11:31.943Z,101572.28
2023-09-29T00:13:58.849Z,101576.69
2023-09-29T00:16:25.202Z,101573.75
2023-09-29T00:18:51.681Z,101570.84
2023-09-29T00:21:18.198Z,101575.19
2023-09-29T00:23:44.626Z,101574.16
2023-09-29T00:26:11.206Z,101566.81
2023-09-29T00:28:37.672Z,101570.38
2023-09-29T00:31:07.110Z,101567.88
2023-09-29T00:33:33.802Z,101569.53
2023-09-29T00:36:03.435Z,101564.94
2023-09-29T00:38:30.055Z,101564.72
2023-09-29T00:40:56.982Z,101563.91
2023-09-29T00:43:23.522Z,101570.78
2023-09-29T00:45:50.590Z,101561.56
2023-09-29T00:48:18.375Z,101555.06
2023-09-29T00:50:46.125Z,101547.94
2023-09-29T00:53:15.733Z,101542.50
2023-09-29T00:55:45.356Z,101540.41
2023-09-29T00:58:14.243Z,101541.00
2023-09-29T01:00:42.237Z,101532.00
2023-09-29T01:03:12.336Z,101519.84
2023-09-29T01:05:43.026Z,101514.41
2023-09-29T01:08:13.893Z,101521.53
2023-09-29T01:10:41.800Z,101510.41
2023-09-29T01:13:09.798Z,101510.19
2023-09-29T01:15:37.705Z,101499.28
2023-09-29T01:18:05.114Z,101506.19
2023-09-29T01:20:32.103Z,101502.19
2023-09-29T01:23:04.912Z,101495.25
2023-09-29T01:25:31.725Z,101500.03
2023-09-29T01:27:58.072Z,101496.03
2023-09-29T01:30:25.864Z,101492.03
2023-09-29T01:32:54.197Z,101492.63
2023-09-29T01:35:25.229Z,101493.25
2023-09-29T01:37:56.431Z,101494.72
2023-09-29T01:40:23.767Z,101492.00
2023-09-29T01:42:51.553Z,101488.81
2023-09-29T01:45:19.000Z,101493.22
2023-09-29T01:47:50.193Z,101488.16
2023-09-29T01:50:19.673Z,101492.59
2023-09-29T01:52:47.766Z,101491.53
2023-09-29T01:55:22.804Z,101482.31
2023-09-29T01:57:50.542Z,101487.53
2023-09-29T02:00:25.429Z,101489.41
2023-09-29T02:05:20.715Z,101477.66
2023-09-29T02:07:48.452Z,101469.50
2023-09-29T02:10:20.153Z,101469.50
2023-09-29T02:12:50.331Z,101468.69
2023-09-29T02:15:17.968Z,101464.28
2023-09-29T02:17:45.884Z,101471.81
2023-09-29T02:20:32.097Z,101473.69
2023-09-29T02:23:00.467Z,101463.63
2023-09-29T02:25:27.596Z,101468.06
2023-09-29T02:27:55.185Z,101470.13
2023-09-29T02:30:21.721Z,101459.47
2023-09-29T02:32:48.361Z,101458.63
2023-09-29T02:35:14.808Z,101452.34
2023-09-29T02:37:42.543Z,101455.91
2023-09-29T02:40:13.124Z,101455.91
2023-09-29T02:42:40.535Z,101452.34
2023-09-29T02:45:08.103Z,101450.69
2023-09-29T02:47:36.474Z,101448.78
2023-09-29T02:50:04.188Z,101437.88
2023-09-29T02:52:31.027Z,101443.34
2023-09-29T02:54:57.462Z,101434.31
2023-09-29T02:57:24.200Z,101426.16
2023-09-29T02:59:50.802Z,101417.13
2023-09-29T03:02:17.527Z,101419.03
2023-09-29T03:04:44.748Z,101419.03
2023-09-29T03:07:11.240Z,101419.03
2023-09-29T03:09:37.894Z,101412.53
2023-09-29T03:12:04.791Z,101413.38
2023-09-29T03:14:31.420Z,101414.41
2023-09-29T03:17:01.737Z,101407.06
2023-09-29T03:19:29.138Z,101406.25
2023-09-29T03:21:55.597Z,101403.50
2023-09-29T03:24:23.161Z,101398.91
2023-09-29T03:26:50.455Z,101394.28
2023-09-29T03:29:18.906Z,101392.41
2023-09-29T03:31:47.817Z,101396.78
2023-09-29T03:34:17.571Z,101389.44
2023-09-29T03:36:44.103Z,101393.00
2023-09-29T03:39:10.956Z,101388.38
2023-09-29T03:41:37.594Z,101381.88
2023-09-29T03:44:04.299Z,101384.41
2023-09-29T03:46:30.741Z,101383.59
2023-09-29T03:48:57.398Z,101406.22
2023-09-29T03:51:25.289Z,101396.75
2023-09-29T03:53:57.035Z,101391.91
2023-09-29T03:56:24.403Z,101382.06
2023-09-29T03:58:51.772Z,101381.22
2023-09-29T04:01:18.646Z,101373.31
2023-09-29T04:03:45.328Z,101364.50
2023-09-29T04:06:12.586Z,101361.78
2023-09-29T04:08:40.089Z,101364.69
2023-09-29T04:11:07.137Z,101359.22
2023-09-29T04:13:34.596Z,101348.56
2023-09-29T04:16:07.784Z,101356.50
2023-09-29T04:18:34.378Z,101343.09
2023-09-29T04:21:03.936Z,101346.66
2023-09-29T04:23:30.842Z,101352.34
2023-09-29T04:25:57.290Z,101342.28
2023-09-29T04:28:23.719Z,101347.50
2023-09-29T04:30:50.381Z,101339.31
2023-09-29T04:33:16.994Z,101342.03
2023-09-29T04:35:44.712Z,101338.28
2023-09-29T04:38:11.965Z,101334.53
2023-09-29T04:40:39.230Z,101330.97
2023-09-29T04:43:06.698Z,101334.31
2023-09-29T04:45:35.283Z,101327.78
2023-09-29T04:48:02.727Z,101323.16
2023-09-29T04:50:30.459Z,101322.94
2023-09-29T04:52:57.015Z,101323.16
2023-09-29T04:55:23.434Z,101330.91
2023-09-29T04:57:53.385Z,101330.66
2023-09-29T05:00:20.024Z,101321.88
2023-09-29T05:02:46.821Z,101327.78
2023-09-29T05:05:13.882Z,101314.41
2023-09-29T05:07:41.082Z,101313.75
2023-09-29T05:10:08.153Z,101310.19
2023-09-29T05:12:35.373Z,101315.84
2023-09-29T05:15:02.069Z,101319.66
2023-09-29T05:17:44.319Z,101308.75
2023-09-29T05:20:15.326Z,101305.19
2023-09-29T05:22:41.868Z,101305.41
2023-09-29T05:25:09.029Z,101308.34
2023-09-29T05:27:35.692Z,101305.88
2023-09-29T05:30:04.001Z,101311.31
2023-09-29T05:32:32.294Z,101311.31
2023-09-29T05:34:59.101Z,101309.66
2023-09-29T05:37:25.506Z,101318.66
2023-09-29T05:39:52.030Z,101319.72
2023-09-29T05:42:27.921Z,101312.38
2023-09-29T05:45:00.234Z,101312.16
2023-09-29T05:47:27.003Z,101320.56
2023-09-29T05:50:00.139Z,101308.81
2023-09-29T05:52:37.818Z,101311.31
2023-09-29T05:55:04.467Z,101312.16
2023-09-29T05:57:31.375Z,101304.00
2023-09-29T05:59:58.098Z,101308.34
2023-09-29T06:02:24.606Z,101311.69
2023-09-29T06:04:51.113Z,101314.44
2023-09-29T06:07:18.270Z,101315.84
2023-09-29T06:09:44.677Z,101314.78
2023-09-29T06:12:11.286Z,101315.44
2023-09-29T06:14:38.456Z,101317.13
2023-09-29T06:17:04.953Z,101316.06
2023-09-29T06:19:31.646Z,101313.34
2023-09-29T06:21:58.061Z,101321.06
2023-09-29T06:24:24.666Z,101322.25
2023-09-29T06:26:51.480Z,101318.00
2023-09-29T06:29:17.920Z,101312.34
2023-09-29T06:31:44.330Z,101312.97
2023-09-29T06:34:10.682Z,101319.84
2023-09-29T06:36:37.237Z,101312.28
2023-09-29T06:39:03.729Z,101323.56
2023-09-29T06:41:30.085Z,101328.31
2023-09-29T06:43:56.568Z,101329.31
2023-09-29T06:46:23.212Z,101325.09
2023-09-29T06:48:49.698Z,101324.41
2023-09-29T06:51:16.131Z,101315.53
2023-09-29T06:53:42.910Z,101319.09
2023-09-29T06:56:09.406Z,101321.81
2023-09-29T06:58:35.804Z,101320.97
2023-09-29T07:01:03.034Z,101324.75
2023-09-29T07:03:33.701Z,101331.66
2023-09-29T07:06:02.084Z,101333.94
2023-09-29T07:08:29.356Z,101337.28
2023-09-29T07:10:56.554Z,101323.16
2023-09-29T07:13:23.040Z,101327.34
2023-09-29T07:15:50.000Z,101334.00
2023-09-29T07:18:17.836Z,101334.97
2023-09-29T07:20:44.932Z,101328.00
2023-09-29T07:23:11.499Z,101335.69
2023-09-29T07:25:39.061Z,101333.13
2023-09-29T07:28:08.635Z,101337.06
2023-09-29T07:30:35.027Z,101334.25
2023-09-29T07:33:01.581Z,101334.13
2023-09-29T07:35:29.341Z,101333.25
2023-09-29T07:37:56.184Z,101339.69
2023-09-29T07:40:22.554Z,101348.63
2023-09-29T07:42:48.977Z,101339.25
2023-09-29T07:45:15.533Z,101351.75
2023-09-29T07:47:42.783Z,101352.34
2023-09-29T07:50:10.192Z,101352.72
2023-09-29T07:52:39.069Z,101342.38
2023-09-29T07:55:06.785Z,101347.97
2023-09-29T07:57:33.472Z,101342.66
2023-09-29T08:00:00.262Z,101346.56
2023-09-29T08:02:28.149Z,101360.56
2023-09-29T08:04:54.607Z,101351.09
2023-09-29T08:07:21.037Z,101359.28
2023-09-29T08:09:49.815Z,101359.50
2023-09-29T08:12:16.570Z,101359.28
2023-09-29T08:14:42.969Z,101366.03
2023-09-29T08:17:09.537Z,101357.63
2023-09-29T08:19:35.932Z,101368.31
2023-09-29T08:22:03.793Z,101360.69
2023-09-29T08:24:33.943Z,101373.06
2023-09-29T08:27:01.755Z,101368.78
2023-09-29T08:29:28.339Z,101365.84
2023-09-29T08:31:59.277Z,101366.19
2023-09-29T08:34:26.110Z,101367.75
2023-09-29T08:36:53.336Z,101368.22
2023-09-29T08:39:21.032Z,101371.44
2023-09-29T08:41:57.385Z,101369.22
2023-09-29T08:44:28.472Z,101385.75
2023-09-29T08:47:01.324Z,101377.41
2023-09-29T08:49:39.388Z,101380.28
2023-09-29T08:52:11.333Z,101386.69
2023-09-29T08:54:39.067Z,101381.78
2023-09-29T08:57:06.559Z,101384.63
2023-09-29T08:59:34.779Z,101386.63
2023-09-29T09:02:01.357Z,101380.69
2023-09-29T09:04:29.353Z,101389.00
2023-09-29T09:06:55.995Z,101386.25
2023-09-29T09:09:24.345Z,101395.03
2023-09-29T09:11:50.977Z,101391.00
2023-09-29T09:14:17.457Z,101395.75
2023-09-29T09:16:46.184Z,101396.94
2023-09-29T09:19:14.016Z,101395.00
2023-09-29T09:21:42.509Z,101403.09
2023-09-29T09:24:20.109Z,101404.72
2023-09-29T09:26:47.956Z,101398.19
2023-09-29T09:29:18.319Z,101398.19
2023-09-29T09:31:54.110Z,101400.59
2023-09-29T09:34:20.557Z,101412.03
2023-09-29T09:36:55.517Z,101406.44
2023-09-29T09:39:25.865Z,101404.28
2023-09-29T09:41:54.690Z,101404.53
2023-09-29T09:44:22.885Z,101415.47
2023-09-29T09:47:01.972Z,101414.06
2023-09-29T09:49:42.894Z,101422.53
2023-09-29T09:52:13.636Z,101414.53
2023-09-29T09:54:46.967Z,101417.28
2023-09-29T09:57:21.584Z,101423.38
2023-09-29T09:59:49.366Z,101425.38
2023-09-29T10:02:19.366Z,101427.13
2023-09-29T10:04:48.846Z,101433.94
2023-09-29T10:07:15.799Z,101430.63
2023-09-29T10:09:46.980Z,101438.31
2023-09-29T10:12:26.994Z,101437.84
2023-09-29T10:14:53.561Z,101438.69
2023-09-29T10:17:21.676Z,101432.84
2023-09-29T10:19:52.417Z,101441.34
2023-09-29T10:22:24.053Z,101438.81
2023-09-29T10:24:50.536Z,101443.69
2023-09-29T10:27:34.447Z,101449.19
2023-09-29T10:30:20.097Z,101448.09
2023-09-29T10:32:50.099Z,101445.88
2023-09-29T10:35:21.815Z,101461.69
2023-09-29T10:37:56.222Z,101458.34
2023-09-29T10:40:33.147Z,101466.09
2023-09-29T10:43:03.852Z,101465.84
2023-09-29T10:45:37.586Z,101470.50
2023-09-29T10:48:08.939Z,101461.69
2023-09-29T10:50:42.392Z,101467.16
2023-09-29T10:53:09.598Z,101472.06
2023-09-29T10:55:49.724Z,101471.81
2023-09-29T10:58:19.358Z,101478.13
2023-09-29T11:00:50.656Z,101476.72
2023-09-29T11:03:24.105Z,101483.47
2023-09-29T11:05:55.257Z,101478.25
2023-09-29T11:08:30.693Z,101485.38
2023-09-29T11:11:04.485Z,101484.31
2023-09-29T11:13:32.274Z,101477.53
2023-09-29T11:16:00.479Z,101487.16
2023-09-29T11:18:28.031Z,101484.69
2023-09-29T11:20:54.559Z,101487.53
2023-09-29T11:23:21.414Z,101487.06
2023-09-29T11:25:51.902Z,101497.88
2023-09-29T11:28:19.161Z,101495.13
2023-09-29T11:30:45.804Z,101501.72
2023-09-29T11:33:12.875Z,101515.84
2023-09-29T11:35:49.476Z,101526.44
2023-09-29T11:38:29.146Z,101530.34
2023-09-29T11:40:56.514Z,101534.00
2023-09-29T11:43:23.010Z,101546.72
2023-09-29T11:45:49.534Z,101555.06
2023-09-29T11:48:16.282Z,101554.53
2023-09-29T11:50:43.174Z,101545.28
2023-09-29T11:53:09.658Z,101556.34
2023-09-29T11:55:39.298Z,101568.97
2023-09-29T11:58:05.791Z,101580.13
2023-09-29T12:00:32.474Z,101580.59
2023-09-29T12:03:00.115Z,101591.41
2023-09-29T12:05:26.756Z,101608.03
2023-09-29T12:07:54.829Z,101619.28
2023-09-29T12:10:21.831Z,101618.75
2023-09-29T12:12:48.245Z,101624.91
2023-09-29T12:15:16.780Z,101632.06
2023-09-29T12:17:43.308Z,101635.84
2023-09-29T12:20:14.517Z,101654.00
2023-09-29T12:22:45.067Z,101661.00
2023-09-29T12:25:15.555Z,101655.06
2023-09-29T12:27:46.191Z,101665.75
2023-09-29T12:30:13.872Z,101669.34
2023-09-29T12:32:41.592Z,101677.13
2023-09-29T12:35:13.901Z,101684.53
2023-09-29T12:37:44.341Z,101685.19
2023-09-29T12:40:15.713Z,101704.56
2023-09-29T12:42:48.473Z,101716.19
2023-09-29T12:45:15.828Z,101712.19
2023-09-29T12:47:45.428Z,101712.19
2023-09-29T12:50:12.857Z,101717.28
2023-09-29T12:52:39.418Z,101726.50
2023-09-29T12:55:06.935Z,101737.09
2023-09-29T12:57:33.496Z,101732.72
2023-09-29T13:00:01.168Z,101751.34
2023-09-29T13:02:32.764Z,101742.22
2023-09-29T13:05:00.127Z,101758.78
2023-09-29T13:07:26.986Z,101764.63
2023-09-29T13:09:53.653Z,101761.72
2023-09-29T13:12:31.041Z,101774.63
2023-09-29T13:14:58.350Z,101777.00
2023-09-29T13:17:24.823Z,101791.03
2023-09-29T13:19:51.316Z,101804.09
2023-09-29T13:22:17.664Z,101804.31
2023-09-29T13:24:44.116Z,101795.44
2023-09-29T13:27:11.714Z,101809.25
2023-09-29T13:29:39.628Z,101817.53
2023-09-29T13:32:06.138Z,101816.09
2023-09-29T13:34:32.710Z,101823.44
2023-09-29T13:37:00.665Z,101836.34
2023-09-29T13:39:28.943Z,101832.63
2023-09-29T13:41:55.894Z,101831.63
2023-09-29T13:44:22.522Z,101837.34
2023-09-29T13:47:03.210Z,101844.47
2023-09-29T13:49:30.757Z,101838.63
2023-09-29T13:51:57.205Z,101840.72
2023-09-29T13:54:23.746Z,101846.41
2023-09-29T13:56:50.257Z,101848.75
2023-09-29T13:59:16.726Z,101851.06
2023-09-29T14:01:43.381Z,101860.09
2023-09-29T14:04:10.125Z,101863.22
2023-09-29T14:06:36.569Z,101870.53
2023-09-29T14:09:16.030Z,101877.69
2023-09-29T14:11:44.311Z,101883.31
2023-09-29T14:14:10.876Z,101883.47
2023-09-29T14:16:37.359Z,101879.53
2023-09-29T14:19:03.890Z,101882.63
2023-09-29T14:21:30.396Z,101886.16
2023-09-29T14:23:57.142Z,101893.88
2023-09-29T14:26:23.791Z,101898.06
2023-09-29T14:28:50.615Z,101893.81
2023-09-29T14:31:17.765Z,101900.34
2023-09-29T14:33:45.077Z,101892.97
2023-09-29T14:36:11.651Z,101904.75
2023-09-29T14:38:40.138Z,101909.41
2023-09-29T14:41:09.013Z,101912.75
2023-09-29T14:43:37.530Z,101918.59
2023-09-29T14:46:14.708Z,101924.84
2023-09-29T14:48:41.924Z,101931.91
2023-09-29T14:51:09.657Z,101933.25
2023-09-29T14:53:37.443Z,101928.03
2023-09-29T14:56:07.999Z,101943.25
2023-09-29T14:58:35.005Z,101945.81
2023-09-29T15:01:01.611Z,101950.00
2023-09-29T15:03:28.564Z,101949.69
2023-09-29T15:05:55.723Z,101947.25
2023-09-29T15:08:22.277Z,101960.41
2023-09-29T15:10:48.908Z,101963.84
2023-09-29T15:13:15.272Z,101961.84
2023-09-29T15:15:42.738Z,101968.34
2023-09-29T15:18:09.936Z,101974.81
2023-09-29T15:20:39.904Z,101985.28
2023-09-29T15:23:09.883Z,101988.41
2023-09-29T15:25:37.938Z,101990.66
2023-09-29T15:28:05.639Z,101993.47
2023-09-29T15:30:32.115Z,102004.41
2023-09-29T15:32:58.866Z,102005.09
2023-09-29T15:35:25.372Z,102008.25
2023-09-29T15:37:51.748Z,102017.31
2023-09-29T15:40:18.587Z,102025.28
2023-09-29T15:42:46.029Z,102029.13
2023-09-29T15:45:13.083Z,102032.00
2023-09-29T15:47:39.760Z,102039.88
2023-09-29T15:50:08.253Z,102048.31
2023-09-29T15:52:38.464Z,102048.94
2023-09-29T15:55:05.699Z,102045.59
2023-09-29T15:57:32.215Z,102051.97
2023-09-29T15:59:58.897Z,102053.22
2023-09-29T16:02:27.127Z,102066.72
2023-09-29T16:04:54.963Z,102071.16
2023-09-29T16:07:21.738Z,102069.72
2023-09-29T16:09:48.158Z,102077.28
2023-09-29T16:12:15.609Z,102081.53
2023-09-29T16:14:42.574Z,102095.84
2023-09-29T16:17:09.222Z,102100.66
2023-09-29T16:19:36.385Z,102100.50
2023-09-29T16:22:03.302Z,102105.34
2023-09-29T16:24:32.366Z,102109.16
2023-09-29T16:26:59.097Z,102109.34
2023-09-29T16:29:25.834Z,102106.44
2023-09-29T16:31:52.338Z,102117.56
2023-09-29T16:34:18.866Z,102112.75
2023-09-29T16:36:45.404Z,102121.59
2023-09-29T16:39:15.005Z,102120.97
2023-09-29T16:41:42.564Z,102136.53
2023-09-29T16:44:10.515Z,102140.50
2023-09-29T16:46:37.614Z,102141.56
2023-09-29T16:49:04.036Z,102142.00
2023-09-29T16:51:32.892Z,102153.13
2023-09-29T16:54:02.080Z,102157.75
2023-09-29T16:56:29.704Z,102158.38
2023-09-29T16:58:57.701Z,102162.78
2023-09-29T17:01:25.436Z,102166.13
2023-09-29T17:03:53.366Z,102170.53
2023-09-29T17:06:28.734Z,102176.41
2023-09-29T17:08:56.182Z,102180.41
2023-09-29T17:11:22.630Z,102183.75
2023-09-29T17:13:49.102Z,102188.78
2023-09-29T17:16:15.852Z,102203.25
2023-09-29T17:18:44.007Z,102196.75
2023-09-29T17:21:15.353Z,102204.53
2023-09-29T17:23:42.863Z,102212.28
2023-09-29T17:26:09.742Z,102220.88
2023-09-29T17:28:36.274Z,102226.94
2023-09-29T17:31:02.841Z,102221.06
2023-09-29T17:33:29.514Z,102231.94
2023-09-29T17:35:56.170Z,102237.59
2023-09-29T17:38:22.713Z,102243.25
2023-09-29T17:40:50.766Z,102248.03
2023-09-29T17:43:17.359Z,102254.13
2023-09-29T17:45:43.831Z,102251.59
2023-09-29T17:48:22.350Z,102264.78
2023-09-29T17:50:56.708Z,102262.41
2023-09-29T17:53:23.403Z,102274.78
2023-09-29T17:55:50.229Z,102278.94
2023-09-29T17:58:18.738Z,102288.56
2023-09-29T18:00:45.206Z,102292.94
2023-09-29T18:03:11.721Z,102295.44
2023-09-29T18:05:38.306Z,102295.63
2023-09-29T18:08:05.083Z,102302.94
2023-09-29T18:10:31.514Z,102306.09
2023-09-29T18:12:57.885Z,102312.75
2023-09-29T18:15:24.401Z,102310.44
2023-09-29T18:17:50.936Z,102310.22
2023-09-29T18:20:19.286Z,102308.91
2023-09-29T18:22:46.206Z,102318.50
2023-09-29T18:25:12.618Z,102325.41
2023-09-29T18:27:39.064Z,102323.06
2023-09-29T18:30:07.468Z,102330.78
2023-09-29T18:32:34.046Z,102339.16
2023-09-29T18:35:00.624Z,102342.28
2023-09-29T18:37:27.152Z,102345.38
2023-09-29T18:39:53.860Z,102343.91
2023-09-29T18:42:20.299Z,102343.84
2023-09-29T18:44:46.785Z,102354.91
2023-09-29T18:47:13.230Z,102353.63
2023-09-29T18:49:39.676Z,102351.13
2023-09-29T18:52:10.715Z,102355.06
2023-09-29T18:54:38.606Z,102364.66
2023-09-29T18:57:05.388Z,102368.81
2023-09-29T18:59:33.095Z,102367.13
2023-09-29T19:02:02.006Z,102364.13
2023-09-29T19:04:29.294Z,102368.47
2023-09-29T19:06:55.884Z,102370.91
2023-09-29T19:09:23.523Z,102373.16
2023-09-29T19:11:50.087Z,102374.56
2023-09-29T19:14:16.675Z,102373.28
2023-09-29T19:16:43.161Z,102381.81
2023-09-29T19:19:09.888Z,102379.47
2023-09-29T19:21:36.246Z,102377.34
2023-09-29T19:24:02.780Z,102383.13
2023-09-29T19:26:29.721Z,102379.97
2023-09-29T19:28:56.768Z,102381.38
2023-09-29T19:31:27.570Z,102377.38
2023-09-29T19:33:58.156Z,102374.34
2023-09-29T19:36:29.563Z,102374.75
2023-09-29T19:38:56.766Z,102381.59
2023-09-29T19:41:23.585Z,102380.09
2023-09-29T19:43:51.994Z,102381.31
2023-09-29T19:46:18.552Z,102386.38
2023-09-29T19:48:45.444Z,102392.38
2023-09-29T19:51:14.573Z,102402.22
2023-09-29T19:53:41.582Z,102404.00
2023-09-29T19:56:12.951Z,102419.75
2023-09-29T19:58:44.248Z,102415.34
2023-09-29T20:01:11.915Z,102411.78
2023-09-29T20:03:41.584Z,102411.31
2023-09-29T20:06:09.460Z,102419.00
2023-09-29T20:08:36.174Z,102431.75
2023-09-29T20:11:03.330Z,102428.00
2023-09-29T20:13:31.054Z,102437.19
2023-09-29T20:16:00.812Z,102438.38
2023-09-29T20:18:27.613Z,102437.06
2023-09-29T20:20:54.169Z,102436.50
2023-09-29T20:23:22.679Z,102443.50
2023-09-29T20:25:49.168Z,102449.13
2023-09-29T20:28:15.701Z,102447.41
2023-09-29T20:30:42.258Z,102450.34
2023-09-29T20:33:09.023Z,102448.81
2023-09-29T20:35:35.591Z,102446.63
2023-09-29T20:38:02.201Z,102433.94
2023-09-29T20:40:28.721Z,102437.22
2023-09-29T20:42:56.326Z,102438.63
2023-09-29T20:45:22.824Z,102435.47
2023-09-29T20:47:49.338Z,102432.13
2023-09-29T20:50:15.848Z,102433.31
2023-09-29T20:52:42.239Z,102437.72
2023-09-29T20:55:08.808Z,102437.97
2023-09-29T20:57:35.882Z,102431.16
2023-09-29T21:00:02.653Z,102441.53
2023-09-29T21:02:29.161Z,102448.88
2023-09-29T21:04:55.815Z,102452.59
2023-09-29T21:07:22.323Z,102446.34
2023-09-29T21:09:49.115Z,102450.25
2023-09-29T21:12:16.063Z,102460.25
2023-09-29T21:14:42.606Z,102455.75
2023-09-29T21:17:09.071Z,102453.03
2023-09-29T21:19:35.586Z,102442.84
2023-09-29T21:22:05.015Z,102441.44
2023-09-29T21:24:31.700Z,102440.59
2023-09-29T21:26:58.383Z,102458.09
2023-09-29T21:29:24.871Z,102453.03
2023-09-29T21:31:54.250Z,102459.09
2023-09-29T21:34:20.937Z,102455.38
2023-09-29T21:36:47.828Z,102464.53
2023-09-29T21:39:17.016Z,102468.47
2023-09-29T21:41:44.714Z,102464.41
2023-09-29T21:44:12.273Z,102474.09
2023-09-29T21:46:39.971Z,102473.94
2023-09-29T21:49:07.350Z,102478.88
2023-09-29T21:51:35.129Z,102486.81
2023-09-29T21:54:02.648Z,102489.34
2023-09-29T21:56:30.075Z,102486.66
2023-09-29T21:58:59.826Z,102490.38
2023-09-29T22:01:26.447Z,102499.25
2023-09-29T22:03:52.985Z,102491.13
2023-09-29T22:06:19.637Z,102486.50
2023-09-29T22:08:46.500Z,102476.69
2023-09-29T22:11:13.663Z,102486.19
2023-09-29T22:13:41.254Z,102483.00
2023-09-29T22:16:08.539Z,102486.56
2023-09-29T22:18:35.864Z,102489.63
2023-09-29T22:21:02.612Z,102485.56
2023-09-29T22:23:30.068Z,102490.13
2023-09-29T22:25:56.640Z,102485.38
2023-09-29T22:28:23.225Z,102480.13
2023-09-29T22:30:49.657Z,102482.84
2023-09-29T22:33:19.393Z,102474.06
2023-09-29T22:35:46.089Z,102479.81
2023-09-29T22:38:12.465Z,102475.06
2023-09-29T22:40:39.067Z,102474.59
2023-09-29T22:43:05.838Z,102488.50
2023-09-29T22:45:32.330Z,102485.28
2023-09-29T22:48:00.179Z,102483.09
2023-09-29T22:50:27.542Z,102491.25
2023-09-29T22:52:54.130Z,102491.25
2023-09-29T22:55:20.916Z,102494.13
2023-09-29T22:57:47.693Z,102492.25
2023-09-29T23:00:15.029Z,102493.94
2023-09-29T23:02:44.573Z,102495.13
2023-09-29T23:05:12.282Z,102497.16
2023-09-29T23:07:38.839Z,102499.72
2023-09-29T23:10:06.532Z,102503.63
2023-09-29T23:12:33.369Z,102502.25
2023-09-29T23:15:01.138Z,102506.84
2023-09-29T23:17:27.754Z,102503.78
2023-09-29T23:19:54.329Z,102494.63
2023-09-29T23:22:20.726Z,102502.94
2023-09-29T23:24:47.244Z,102501.41
2023-09-29T23:27:14.880Z,102511.09
2023-09-29T23:29:41.616Z,102510.88
2023-09-29T23:32:08.076Z,102511.59
2023-09-29T23:34:35.132Z,102509.19
2023-09-29T23:37:01.656Z,102507.84
2023-09-29T23:39:28.069Z,102504.97
2023-09-29T23:41:55.723Z,102502.09
2023-09-29T23:44:24.130Z,102502.97
2023-09-29T23:46:50.608Z,102502.97
2023-09-29T23:49:17.163Z,102499.41
2023-09-29T23:51:45.363Z,102499.56
2023-09-29T23:54:12.115Z,102503.47
2023-09-29T23:56:38.684Z,102497.38
2023-09-29T23:59:05.058Z,102500.28
